Forside
METAR-TAF:

METAR-TAF

Lufthavne :

Nukus, Usbekistan

Breddekreds: 42-28-48N, længdekreds: 059-37-48E, højde: 77 m

Aktuelle vejr

Denne rapport blev lavet for 29 minutter siden, kl. 02:30 UTC
Vind 4 kt fra nordnordøst
Temperatur -9°C
Fugtighed 52%
Tryk 1032 hPa
Sigt 10 km eller mere
ingen skyer under 1500m og ingen cumulonimbus

METAR: UTNN 160230Z 02004KT CAVOK M09/M17 Q1032 R33/CLRD60 NOSIG

Tid: 07:59 (02:59 UTC)

Vejrudsigter

Denne rapport blev lavet for 3 timer og 59 minutter siden, kl. 23:00 UTC
Foreløbig gælder fra 16 på 00 UTC til 16 på 24 UTC
Vind 14 kt fra øst med vindstød på up til 24 kt
Sigt 10 km eller mere
ingen skyer under 1500m og ingen cumulonimbus

TAF: UTNN 152300Z 1600/1624 09014G24KT CAVOK

Vejrobservationer og prognoser fra mere end 4000 lufthavne (METAR og TAF).

De gule og røde prikker repræsenterer de meteorologiske stationer.

Flyt musen over at se navnet på stationen.

Så klik over at se vejr observationer og prognoser.

At skifte det kort: Klik på de grønne knapper med et sort kors for at zoome ind; på den grønne knap med en bindestreg for at zoome ud; eller på de grønne pile for tilstødende kort.


METAR-TAF: